sensor_id;sensor_type;location;lat;lon;timestamp;P1;durP1;ratioP1;P2;durP2;ratioP2
21860;SDS011;11095;48.066;8.540;2022-09-09T00:01:46;3.72;;;1.40;;
21860;SDS011;11095;48.066;8.540;2022-09-09T00:04:27;3.25;;;1.30;;
21860;SDS011;11095;48.066;8.540;2022-09-09T00:12:39;2.22;;;1.40;;
21860;SDS011;11095;48.066;8.540;2022-09-09T00:15:22;3.15;;;1.65;;
21860;SDS011;11095;48.066;8.540;2022-09-09T00:18:23;2.17;;;1.20;;
21860;SDS011;11095;48.066;8.540;2022-09-09T00:21:13;3.72;;;1.33;;
21860;SDS011;11095;48.066;8.540;2022-09-09T00:23:54;4.18;;;1.23;;
21860;SDS011;11095;48.066;8.540;2022-09-09T00:26:38;3.30;;;1.40;;
21860;SDS011;11095;48.066;8.540;2022-09-09T00:29:28;2.13;;;1.30;;
21860;SDS011;11095;48.066;8.540;2022-09-09T00:31:56;4.45;;;1.50;;
21860;SDS011;11095;48.066;8.540;2022-09-09T00:34:29;2.67;;;1.45;;
21860;SDS011;11095;48.066;8.540;2022-09-09T00:36:57;2.35;;;1.25;;
21860;SDS011;11095;48.066;8.540;2022-09-09T00:39:38;1.85;;;1.30;;
21860;SDS011;11095;48.066;8.540;2022-09-09T00:42:20;3.35;;;1.60;;
21860;SDS011;11095;48.066;8.540;2022-09-09T00:47:54;2.05;;;1.58;;
21860;SDS011;11095;48.066;8.540;2022-09-09T00:50:28;3.20;;;1.50;;
21860;SDS011;11095;48.066;8.540;2022-09-09T00:55:49;2.28;;;1.30;;
21860;SDS011;11095;48.066;8.540;2022-09-09T00:58:37;2.85;;;1.48;;
21860;SDS011;11095;48.066;8.540;2022-09-09T01:01:04;2.10;;;1.40;;
21860;SDS011;11095;48.066;8.540;2022-09-09T01:03:37;4.28;;;1.70;;
21860;SDS011;11095;48.066;8.540;2022-09-09T01:17:00;3.00;;;1.77;;
21860;SDS011;11095;48.066;8.540;2022-09-09T01:20:13;3.25;;;1.50;;
21860;SDS011;11095;48.066;8.540;2022-09-09T01:28:08;2.03;;;1.20;;
21860;SDS011;11095;48.066;8.540;2022-09-09T01:30:39;2.38;;;1.35;;
21860;SDS011;11095;48.066;8.540;2022-09-09T01:33:07;3.72;;;1.58;;
21860;SDS011;11095;48.066;8.540;2022-09-09T01:38:31;1.90;;;1.25;;
21860;SDS011;11095;48.066;8.540;2022-09-09T01:40:58;2.97;;;1.50;;
21860;SDS011;11095;48.066;8.540;2022-09-09T01:43:24;2.67;;;1.52;;
21860;SDS011;11095;48.066;8.540;2022-09-09T01:45:53;2.45;;;1.48;;
21860;SDS011;11095;48.066;8.540;2022-09-09T01:48:21;3.33;;;1.60;;
21860;SDS011;11095;48.066;8.540;2022-09-09T01:50:49;5.05;;;1.52;;
21860;SDS011;11095;48.066;8.540;2022-09-09T01:53:15;2.50;;;1.30;;
21860;SDS011;11095;48.066;8.540;2022-09-09T01:55:46;2.28;;;1.60;;
21860;SDS011;11095;48.066;8.540;2022-09-09T01:58:36;1.88;;;1.40;;
21860;SDS011;11095;48.066;8.540;2022-09-09T02:04:03;3.38;;;1.60;;
21860;SDS011;11095;48.066;8.540;2022-09-09T02:06:56;3.58;;;1.50;;
21860;SDS011;11095;48.066;8.540;2022-09-09T02:09:23;2.25;;;1.38;;
21860;SDS011;11095;48.066;8.540;2022-09-09T02:11:52;2.08;;;1.30;;
21860;SDS011;11095;48.066;8.540;2022-09-09T02:14:25;1.90;;;1.20;;
21860;SDS011;11095;48.066;8.540;2022-09-09T02:17:07;2.58;;;1.63;;
21860;SDS011;11095;48.066;8.540;2022-09-09T02:19:39;3.90;;;1.73;;
21860;SDS011;11095;48.066;8.540;2022-09-09T02:22:13;2.67;;;1.45;;
21860;SDS011;11095;48.066;8.540;2022-09-09T02:24:44;3.05;;;1.70;;
21860;SDS011;11095;48.066;8.540;2022-09-09T02:27:11;3.47;;;1.58;;
21860;SDS011;11095;48.066;8.540;2022-09-09T02:29:40;3.25;;;1.55;;
21860;SDS011;11095;48.066;8.540;2022-09-09T02:32:25;2.65;;;1.30;;
21860;SDS011;11095;48.066;8.540;2022-09-09T02:34:56;2.58;;;1.40;;
21860;SDS011;11095;48.066;8.540;2022-09-09T02:37:33;3.72;;;1.48;;
21860;SDS011;11095;48.066;8.540;2022-09-09T02:40:04;1.55;;;1.30;;
21860;SDS011;11095;48.066;8.540;2022-09-09T02:44:57;3.05;;;1.58;;
21860;SDS011;11095;48.066;8.540;2022-09-09T02:47:30;1.50;;;1.40;;
21860;SDS011;11095;48.066;8.540;2022-09-09T02:52:47;3.05;;;1.60;;
21860;SDS011;11095;48.066;8.540;2022-09-09T02:55:39;2.42;;;1.55;;
21860;SDS011;11095;48.066;8.540;2022-09-09T03:00:32;5.72;;;2.00;;
21860;SDS011;11095;48.066;8.540;2022-09-09T03:03:00;3.03;;;1.50;;
21860;SDS011;11095;48.066;8.540;2022-09-09T03:05:28;3.17;;;1.90;;
21860;SDS011;11095;48.066;8.540;2022-09-09T03:07:54;2.50;;;2.10;;
21860;SDS011;11095;48.066;8.540;2022-09-09T03:10:20;2.78;;;1.90;;
21860;SDS011;11095;48.066;8.540;2022-09-09T03:12:46;2.90;;;2.00;;
21860;SDS011;11095;48.066;8.540;2022-09-09T03:15:11;2.92;;;2.08;;
21860;SDS011;11095;48.066;8.540;2022-09-09T03:17:38;4.20;;;2.10;;
21860;SDS011;11095;48.066;8.540;2022-09-09T03:20:03;3.97;;;1.60;;
21860;SDS011;11095;48.066;8.540;2022-09-09T03:22:29;2.67;;;1.77;;
21860;SDS011;11095;48.066;8.540;2022-09-09T03:24:55;3.13;;;1.98;;
21860;SDS011;11095;48.066;8.540;2022-09-09T03:27:21;4.50;;;2.13;;
21860;SDS011;11095;48.066;8.540;2022-09-09T03:29:46;3.58;;;2.00;;
21860;SDS011;11095;48.066;8.540;2022-09-09T03:32:12;6.35;;;2.28;;
21860;SDS011;11095;48.066;8.540;2022-09-09T03:34:38;2.15;;;1.80;;
21860;SDS011;11095;48.066;8.540;2022-09-09T03:37:07;3.92;;;2.00;;
21860;SDS011;11095;48.066;8.540;2022-09-09T03:39:32;3.90;;;2.28;;
21860;SDS011;11095;48.066;8.540;2022-09-09T03:41:58;3.08;;;2.10;;
21860;SDS011;11095;48.066;8.540;2022-09-09T03:44:24;2.30;;;1.83;;
21860;SDS011;11095;48.066;8.540;2022-09-09T03:46:49;3.38;;;2.20;;
21860;SDS011;11095;48.066;8.540;2022-09-09T03:49:15;3.33;;;2.10;;
21860;SDS011;11095;48.066;8.540;2022-09-09T03:51:41;3.25;;;2.33;;
21860;SDS011;11095;48.066;8.540;2022-09-09T03:54:07;2.50;;;1.90;;
21860;SDS011;11095;48.066;8.540;2022-09-09T03:56:35;3.05;;;2.20;;
21860;SDS011;11095;48.066;8.540;2022-09-09T03:59:02;3.28;;;2.05;;
21860;SDS011;11095;48.066;8.540;2022-09-09T04:01:28;3.08;;;2.00;;
21860;SDS011;11095;48.066;8.540;2022-09-09T04:03:54;2.75;;;1.95;;
21860;SDS011;11095;48.066;8.540;2022-09-09T04:06:23;4.00;;;2.43;;
21860;SDS011;11095;48.066;8.540;2022-09-09T04:08:49;2.92;;;2.30;;
21860;SDS011;11095;48.066;8.540;2022-09-09T04:11:17;4.15;;;2.85;;
21860;SDS011;11095;48.066;8.540;2022-09-09T04:13:43;4.05;;;2.42;;
21860;SDS011;11095;48.066;8.540;2022-09-09T04:16:10;3.40;;;2.58;;
21860;SDS011;11095;48.066;8.540;2022-09-09T04:18:38;3.50;;;2.30;;
21860;SDS011;11095;48.066;8.540;2022-09-09T04:21:04;6.10;;;2.78;;
21860;SDS011;11095;48.066;8.540;2022-09-09T04:23:31;3.85;;;2.60;;
21860;SDS011;11095;48.066;8.540;2022-09-09T04:25:59;3.42;;;2.60;;
21860;SDS011;11095;48.066;8.540;2022-09-09T04:28:27;4.75;;;2.80;;
21860;SDS011;11095;48.066;8.540;2022-09-09T04:30:54;4.35;;;2.53;;
21860;SDS011;11095;48.066;8.540;2022-09-09T04:33:23;4.10;;;2.50;;
21860;SDS011;11095;48.066;8.540;2022-09-09T04:35:51;3.10;;;2.60;;
21860;SDS011;11095;48.066;8.540;2022-09-09T04:38:18;3.85;;;2.60;;
21860;SDS011;11095;48.066;8.540;2022-09-09T04:40:48;3.72;;;2.60;;
21860;SDS011;11095;48.066;8.540;2022-09-09T04:43:16;4.00;;;2.42;;
21860;SDS011;11095;48.066;8.540;2022-09-09T04:45:44;3.30;;;2.53;;
21860;SDS011;11095;48.066;8.540;2022-09-09T04:48:13;4.90;;;2.50;;
21860;SDS011;11095;48.066;8.540;2022-09-09T04:50:38;5.40;;;2.30;;
21860;SDS011;11095;48.066;8.540;2022-09-09T04:53:05;5.10;;;2.60;;
21860;SDS011;11095;48.066;8.540;2022-09-09T04:55:32;3.45;;;2.28;;
21860;SDS011;11095;48.066;8.540;2022-09-09T04:58:03;4.85;;;2.67;;
21860;SDS011;11095;48.066;8.540;2022-09-09T05:00:32;3.78;;;2.95;;
21860;SDS011;11095;48.066;8.540;2022-09-09T05:03:02;3.50;;;2.50;;
21860;SDS011;11095;48.066;8.540;2022-09-09T05:05:29;7.22;;;2.88;;
21860;SDS011;11095;48.066;8.540;2022-09-09T05:08:00;3.63;;;2.78;;
21860;SDS011;11095;48.066;8.540;2022-09-09T05:10:30;3.67;;;2.47;;
21860;SDS011;11095;48.066;8.540;2022-09-09T05:12:56;4.50;;;2.53;;
21860;SDS011;11095;48.066;8.540;2022-09-09T05:15:21;4.68;;;2.90;;
21860;SDS011;11095;48.066;8.540;2022-09-09T05:17:47;2.95;;;2.65;;
21860;SDS011;11095;48.066;8.540;2022-09-09T05:20:12;3.22;;;2.50;;
21860;SDS011;11095;48.066;8.540;2022-09-09T05:22:38;2.95;;;2.58;;
21860;SDS011;11095;48.066;8.540;2022-09-09T05:25:04;4.03;;;2.83;;
21860;SDS011;11095;48.066;8.540;2022-09-09T05:27:30;4.07;;;2.88;;
21860;SDS011;11095;48.066;8.540;2022-09-09T05:29:56;2.85;;;2.55;;
21860;SDS011;11095;48.066;8.540;2022-09-09T05:32:23;3.05;;;2.72;;
21860;SDS011;11095;48.066;8.540;2022-09-09T05:34:49;3.28;;;2.75;;
21860;SDS011;11095;48.066;8.540;2022-09-09T05:37:15;3.80;;;2.50;;
21860;SDS011;11095;48.066;8.540;2022-09-09T05:39:41;3.90;;;2.67;;
21860;SDS011;11095;48.066;8.540;2022-09-09T05:42:07;3.17;;;2.70;;
21860;SDS011;11095;48.066;8.540;2022-09-09T05:44:32;4.35;;;2.70;;
21860;SDS011;11095;48.066;8.540;2022-09-09T05:46:58;5.82;;;2.60;;
21860;SDS011;11095;48.066;8.540;2022-09-09T05:49:24;2.33;;;2.10;;
21860;SDS011;11095;48.066;8.540;2022-09-09T05:51:50;3.38;;;2.08;;
21860;SDS011;11095;48.066;8.540;2022-09-09T05:54:16;3.22;;;2.20;;
21860;SDS011;11095;48.066;8.540;2022-09-09T05:56:42;3.42;;;2.20;;
21860;SDS011;11095;48.066;8.540;2022-09-09T05:59:07;4.53;;;2.50;;
21860;SDS011;11095;48.066;8.540;2022-09-09T06:01:34;2.95;;;2.20;;
21860;SDS011;11095;48.066;8.540;2022-09-09T06:04:05;3.20;;;1.98;;
21860;SDS011;11095;48.066;8.540;2022-09-09T06:06:32;4.65;;;2.40;;
21860;SDS011;11095;48.066;8.540;2022-09-09T06:09:02;3.88;;;2.38;;
21860;SDS011;11095;48.066;8.540;2022-09-09T06:11:29;3.42;;;2.72;;
21860;SDS011;11095;48.066;8.540;2022-09-09T06:13:59;3.60;;;2.15;;
21860;SDS011;11095;48.066;8.540;2022-09-09T06:16:26;2.55;;;1.98;;
21860;SDS011;11095;48.066;8.540;2022-09-09T06:18:53;3.03;;;1.90;;
21860;SDS011;11095;48.066;8.540;2022-09-09T06:21:37;3.15;;;2.00;;
21860;SDS011;11095;48.066;8.540;2022-09-09T06:24:03;2.60;;;2.10;;
21860;SDS011;11095;48.066;8.540;2022-09-09T06:26:30;2.95;;;2.10;;
21860;SDS011;11095;48.066;8.540;2022-09-09T06:29:00;3.90;;;1.90;;
21860;SDS011;11095;48.066;8.540;2022-09-09T06:31:29;2.20;;;2.00;;
21860;SDS011;11095;48.066;8.540;2022-09-09T06:33:56;2.67;;;1.50;;
21860;SDS011;11095;48.066;8.540;2022-09-09T06:36:24;2.90;;;1.52;;
21860;SDS011;11095;48.066;8.540;2022-09-09T06:38:51;2.40;;;1.20;;
21860;SDS011;11095;48.066;8.540;2022-09-09T06:41:18;2.72;;;1.30;;
21860;SDS011;11095;48.066;8.540;2022-09-09T06:43:45;1.98;;;1.38;;
21860;SDS011;11095;48.066;8.540;2022-09-09T06:46:13;1.80;;;1.50;;
21860;SDS011;11095;48.066;8.540;2022-09-09T06:48:39;2.55;;;1.52;;
21860;SDS011;11095;48.066;8.540;2022-09-09T06:51:13;3.17;;;1.60;;
21860;SDS011;11095;48.066;8.540;2022-09-09T06:53:40;2.80;;;1.52;;
21860;SDS011;11095;48.066;8.540;2022-09-09T06:58:36;2.42;;;1.90;;
21860;SDS011;11095;48.066;8.540;2022-09-09T07:01:03;3.20;;;1.75;;
21860;SDS011;11095;48.066;8.540;2022-09-09T07:03:32;2.65;;;1.75;;
21860;SDS011;11095;48.066;8.540;2022-09-09T07:05:58;2.97;;;1.85;;
21860;SDS011;11095;48.066;8.540;2022-09-09T07:08:24;4.43;;;1.83;;
21860;SDS011;11095;48.066;8.540;2022-09-09T07:10:50;2.10;;;1.67;;
21860;SDS011;11095;48.066;8.540;2022-09-09T07:13:19;2.80;;;2.00;;
21860;SDS011;11095;48.066;8.540;2022-09-09T07:15:50;2.95;;;1.92;;
21860;SDS011;11095;48.066;8.540;2022-09-09T07:18:16;3.35;;;2.13;;
21860;SDS011;11095;48.066;8.540;2022-09-09T07:20:42;3.40;;;2.10;;
21860;SDS011;11095;48.066;8.540;2022-09-09T07:23:07;3.38;;;2.10;;
21860;SDS011;11095;48.066;8.540;2022-09-09T07:25:33;3.75;;;1.60;;
21860;SDS011;11095;48.066;8.540;2022-09-09T07:27:59;3.30;;;1.40;;
21860;SDS011;11095;48.066;8.540;2022-09-09T07:30:24;2.53;;;1.40;;
21860;SDS011;11095;48.066;8.540;2022-09-09T07:32:51;3.00;;;1.60;;
21860;SDS011;11095;48.066;8.540;2022-09-09T07:35:17;4.30;;;2.00;;
21860;SDS011;11095;48.066;8.540;2022-09-09T07:37:43;2.50;;;1.75;;
21860;SDS011;11095;48.066;8.540;2022-09-09T07:40:10;4.45;;;2.20;;
21860;SDS011;11095;48.066;8.540;2022-09-09T07:42:35;3.50;;;2.08;;
21860;SDS011;11095;48.066;8.540;2022-09-09T07:45:02;2.38;;;1.70;;
21860;SDS011;11095;48.066;8.540;2022-09-09T07:47:29;3.08;;;1.95;;
21860;SDS011;11095;48.066;8.540;2022-09-09T07:49:54;2.60;;;2.05;;
21860;SDS011;11095;48.066;8.540;2022-09-09T07:52:21;3.17;;;2.20;;
21860;SDS011;11095;48.066;8.540;2022-09-09T07:54:47;3.60;;;1.80;;
21860;SDS011;11095;48.066;8.540;2022-09-09T07:57:12;4.35;;;2.20;;
21860;SDS011;11095;48.066;8.540;2022-09-09T07:59:38;2.70;;;2.30;;
21860;SDS011;11095;48.066;8.540;2022-09-09T08:02:04;3.90;;;2.42;;
21860;SDS011;11095;48.066;8.540;2022-09-09T08:04:30;2.35;;;1.75;;
21860;SDS011;11095;48.066;8.540;2022-09-09T08:06:56;3.53;;;1.63;;
21860;SDS011;11095;48.066;8.540;2022-09-09T08:09:24;2.85;;;1.42;;
21860;SDS011;11095;48.066;8.540;2022-09-09T08:11:53;1.65;;;1.20;;
21860;SDS011;11095;48.066;8.540;2022-09-09T08:14:21;2.65;;;1.00;;
21860;SDS011;11095;48.066;8.540;2022-09-09T08:16:48;1.35;;;0.73;;
21860;SDS011;11095;48.066;8.540;2022-09-09T08:19:14;1.75;;;0.80;;
21860;SDS011;11095;48.066;8.540;2022-09-09T08:21:40;2.40;;;0.90;;
21860;SDS011;11095;48.066;8.540;2022-09-09T08:24:07;1.17;;;0.70;;
21860;SDS011;11095;48.066;8.540;2022-09-09T08:26:36;1.58;;;0.90;;
21860;SDS011;11095;48.066;8.540;2022-09-09T08:29:04;1.83;;;0.75;;
21860;SDS011;11095;48.066;8.540;2022-09-09T08:31:35;2.15;;;0.93;;
21860;SDS011;11095;48.066;8.540;2022-09-09T08:34:02;2.60;;;1.00;;
21860;SDS011;11095;48.066;8.540;2022-09-09T08:36:29;2.15;;;0.80;;
21860;SDS011;11095;48.066;8.540;2022-09-09T08:38:58;4.65;;;1.08;;
21860;SDS011;11095;48.066;8.540;2022-09-09T08:52:03;2.38;;;1.25;;
21860;SDS011;11095;48.066;8.540;2022-09-09T08:54:38;2.85;;;1.20;;
21860;SDS011;11095;48.066;8.540;2022-09-09T08:57:05;2.28;;;1.00;;
21860;SDS011;11095;48.066;8.540;2022-09-09T08:59:39;2.53;;;1.00;;
21860;SDS011;11095;48.066;8.540;2022-09-09T09:10:50;1.75;;;1.00;;
21860;SDS011;11095;48.066;8.540;2022-09-09T09:18:57;1.88;;;0.90;;
21860;SDS011;11095;48.066;8.540;2022-09-09T09:23:55;3.92;;;0.95;;
21860;SDS011;11095;48.066;8.540;2022-09-09T09:26:23;2.28;;;1.00;;
21860;SDS011;11095;48.066;8.540;2022-09-09T09:28:56;2.47;;;0.80;;
21860;SDS011;11095;48.066;8.540;2022-09-09T09:31:25;3.67;;;1.17;;
21860;SDS011;11095;48.066;8.540;2022-09-09T09:33:54;2.13;;;0.70;;
21860;SDS011;11095;48.066;8.540;2022-09-09T09:36:42;2.90;;;1.10;;
21860;SDS011;11095;48.066;8.540;2022-09-09T09:39:22;3.13;;;0.80;;
21860;SDS011;11095;48.066;8.540;2022-09-09T09:41:48;1.60;;;0.65;;
21860;SDS011;11095;48.066;8.540;2022-09-09T09:44:31;1.77;;;0.70;;
21860;SDS011;11095;48.066;8.540;2022-09-09T09:47:13;1.65;;;0.90;;
21860;SDS011;11095;48.066;8.540;2022-09-09T09:49:53;3.83;;;0.80;;
21860;SDS011;11095;48.066;8.540;2022-09-09T09:52:28;1.98;;;0.50;;
21860;SDS011;11095;48.066;8.540;2022-09-09T09:54:55;1.95;;;0.50;;
21860;SDS011;11095;48.066;8.540;2022-09-09T09:57:25;1.60;;;0.60;;
21860;SDS011;11095;48.066;8.540;2022-09-09T10:00:13;1.52;;;0.50;;
21860;SDS011;11095;48.066;8.540;2022-09-09T10:02:42;1.00;;;0.68;;
21860;SDS011;11095;48.066;8.540;2022-09-09T10:05:21;2.42;;;0.77;;
21860;SDS011;11095;48.066;8.540;2022-09-09T10:19:20;1.98;;;0.52;;
21860;SDS011;11095;48.066;8.540;2022-09-09T10:24:35;1.00;;;0.52;;
21860;SDS011;11095;48.066;8.540;2022-09-09T10:38:14;1.00;;;0.50;;
21860;SDS011;11095;48.066;8.540;2022-09-09T10:46:07;2.03;;;0.60;;
21860;SDS011;11095;48.066;8.540;2022-09-09T10:48:41;1.70;;;0.60;;
21860;SDS011;11095;48.066;8.540;2022-09-09T10:57:05;2.05;;;0.70;;
21860;SDS011;11095;48.066;8.540;2022-09-09T10:59:40;0.88;;;0.47;;
21860;SDS011;11095;48.066;8.540;2022-09-09T11:02:19;1.75;;;0.68;;
21860;SDS011;11095;48.066;8.540;2022-09-09T11:04:58;2.28;;;0.60;;
21860;SDS011;11095;48.066;8.540;2022-09-09T11:07:41;1.67;;;0.60;;
21860;SDS011;11095;48.066;8.540;2022-09-09T11:13:02;2.50;;;0.60;;
21860;SDS011;11095;48.066;8.540;2022-09-09T11:15:49;2.47;;;0.70;;
21860;SDS011;11095;48.066;8.540;2022-09-09T11:18:21;2.22;;;0.60;;
21860;SDS011;11095;48.066;8.540;2022-09-09T11:20:49;1.40;;;0.70;;
21860;SDS011;11095;48.066;8.540;2022-09-09T11:23:23;2.47;;;0.63;;
21860;SDS011;11095;48.066;8.540;2022-09-09T11:25:58;3.25;;;0.90;;
21860;SDS011;11095;48.066;8.540;2022-09-09T11:34:25;3.08;;;0.70;;
21860;SDS011;11095;48.066;8.540;2022-09-09T11:42:42;3.35;;;0.68;;
21860;SDS011;11095;48.066;8.540;2022-09-09T11:45:15;2.05;;;1.00;;
21860;SDS011;11095;48.066;8.540;2022-09-09T11:47:53;2.33;;;0.90;;
21860;SDS011;11095;48.066;8.540;2022-09-09T11:52:47;2.33;;;0.60;;
21860;SDS011;11095;48.066;8.540;2022-09-09T11:55:27;2.72;;;0.60;;
21860;SDS011;11095;48.066;8.540;2022-09-09T12:00:33;2.17;;;0.68;;
21860;SDS011;11095;48.066;8.540;2022-09-09T12:03:05;2.85;;;0.60;;
21860;SDS011;11095;48.066;8.540;2022-09-09T12:05:51;2.13;;;0.60;;
21860;SDS011;11095;48.066;8.540;2022-09-09T12:08:19;4.00;;;0.80;;
21860;SDS011;11095;48.066;8.540;2022-09-09T12:10:55;2.22;;;0.70;;
21860;SDS011;11095;48.066;8.540;2022-09-09T12:13:26;3.47;;;0.80;;
21860;SDS011;11095;48.066;8.540;2022-09-09T12:15:53;1.67;;;0.60;;
21860;SDS011;11095;48.066;8.540;2022-09-09T12:18:22;3.40;;;0.80;;
21860;SDS011;11095;48.066;8.540;2022-09-09T12:21:03;3.90;;;0.90;;
21860;SDS011;11095;48.066;8.540;2022-09-09T12:28:53;2.38;;;0.80;;
21860;SDS011;11095;48.066;8.540;2022-09-09T12:34:40;2.33;;;0.70;;
21860;SDS011;11095;48.066;8.540;2022-09-09T12:37:28;2.80;;;0.50;;
21860;SDS011;11095;48.066;8.540;2022-09-09T12:40:27;2.13;;;0.68;;
21860;SDS011;11095;48.066;8.540;2022-09-09T12:42:54;2.78;;;0.50;;
21860;SDS011;11095;48.066;8.540;2022-09-09T12:45:22;1.70;;;0.60;;
21860;SDS011;11095;48.066;8.540;2022-09-09T12:47:54;2.38;;;0.65;;
21860;SDS011;11095;48.066;8.540;2022-09-09T12:50:32;2.23;;;0.60;;
21860;SDS011;11095;48.066;8.540;2022-09-09T12:53:09;2.22;;;0.57;;
21860;SDS011;11095;48.066;8.540;2022-09-09T12:55:52;3.92;;;0.60;;
21860;SDS011;11095;48.066;8.540;2022-09-09T12:58:24;1.58;;;0.50;;
21860;SDS011;11095;48.066;8.540;2022-09-09T13:00:53;1.75;;;0.70;;
21860;SDS011;11095;48.066;8.540;2022-09-09T13:03:21;2.50;;;0.63;;
21860;SDS011;11095;48.066;8.540;2022-09-09T13:05:48;1.55;;;0.68;;
21860;SDS011;11095;48.066;8.540;2022-09-09T13:08:16;1.63;;;0.73;;
21860;SDS011;11095;48.066;8.540;2022-09-09T13:13:43;1.75;;;0.60;;
21860;SDS011;11095;48.066;8.540;2022-09-09T13:16:18;2.03;;;0.70;;
21860;SDS011;11095;48.066;8.540;2022-09-09T13:18:45;2.65;;;0.90;;
21860;SDS011;11095;48.066;8.540;2022-09-09T13:21:11;3.05;;;0.73;;
21860;SDS011;11095;48.066;8.540;2022-09-09T13:23:37;2.38;;;0.70;;
21860;SDS011;11095;48.066;8.540;2022-09-09T13:26:05;1.75;;;0.45;;
21860;SDS011;11095;48.066;8.540;2022-09-09T13:28:46;2.60;;;0.60;;
21860;SDS011;11095;48.066;8.540;2022-09-09T13:31:28;2.85;;;0.55;;
21860;SDS011;11095;48.066;8.540;2022-09-09T13:33:56;2.63;;;0.63;;
21860;SDS011;11095;48.066;8.540;2022-09-09T13:36:32;2.10;;;0.60;;
21860;SDS011;11095;48.066;8.540;2022-09-09T13:39:00;2.17;;;0.52;;
21860;SDS011;11095;48.066;8.540;2022-09-09T13:44:02;2.95;;;0.63;;
21860;SDS011;11095;48.066;8.540;2022-09-09T13:46:41;2.05;;;0.60;;
21860;SDS011;11095;48.066;8.540;2022-09-09T13:51:43;2.15;;;0.50;;
21860;SDS011;11095;48.066;8.540;2022-09-09T13:54:12;2.83;;;0.60;;
21860;SDS011;11095;48.066;8.540;2022-09-09T13:56:39;2.25;;;0.60;;
21860;SDS011;11095;48.066;8.540;2022-09-09T13:59:09;1.48;;;0.50;;
21860;SDS011;11095;48.066;8.540;2022-09-09T14:01:40;2.72;;;0.55;;
21860;SDS011;11095;48.066;8.540;2022-09-09T14:04:06;3.92;;;0.93;;
21860;SDS011;11095;48.066;8.540;2022-09-09T14:06:34;3.10;;;0.70;;
21860;SDS011;11095;48.066;8.540;2022-09-09T14:09:08;2.78;;;0.68;;
21860;SDS011;11095;48.066;8.540;2022-09-09T14:11:37;1.63;;;0.50;;
21860;SDS011;11095;48.066;8.540;2022-09-09T14:14:03;1.98;;;0.65;;
21860;SDS011;11095;48.066;8.540;2022-09-09T14:16:30;2.65;;;0.63;;
21860;SDS011;11095;48.066;8.540;2022-09-09T14:18:55;1.83;;;0.60;;
21860;SDS011;11095;48.066;8.540;2022-09-09T14:21:22;1.75;;;0.60;;
21860;SDS011;11095;48.066;8.540;2022-09-09T14:23:48;1.23;;;0.40;;
21860;SDS011;11095;48.066;8.540;2022-09-09T14:26:14;3.08;;;0.43;;
21860;SDS011;11095;48.066;8.540;2022-09-09T14:28:39;1.98;;;0.50;;
21860;SDS011;11095;48.066;8.540;2022-09-09T14:31:06;0.93;;;0.45;;
21860;SDS011;11095;48.066;8.540;2022-09-09T14:33:32;1.23;;;0.32;;
21860;SDS011;11095;48.066;8.540;2022-09-09T14:35:58;2.65;;;0.43;;
21860;SDS011;11095;48.066;8.540;2022-09-09T14:38:26;2.03;;;0.40;;
21860;SDS011;11095;48.066;8.540;2022-09-09T14:40:54;1.60;;;0.30;;
21860;SDS011;11095;48.066;8.540;2022-09-09T14:43:21;2.15;;;0.47;;
21860;SDS011;11095;48.066;8.540;2022-09-09T14:45:47;0.77;;;0.30;;
21860;SDS011;11095;48.066;8.540;2022-09-09T14:48:16;0.55;;;0.35;;
21860;SDS011;11095;48.066;8.540;2022-09-09T14:50:42;0.93;;;0.40;;
21860;SDS011;11095;48.066;8.540;2022-09-09T14:53:08;1.77;;;0.40;;
21860;SDS011;11095;48.066;8.540;2022-09-09T14:55:35;1.85;;;0.50;;
21860;SDS011;11095;48.066;8.540;2022-09-09T14:58:02;1.42;;;0.40;;
21860;SDS011;11095;48.066;8.540;2022-09-09T15:00:28;1.10;;;0.45;;
21860;SDS011;11095;48.066;8.540;2022-09-09T15:02:54;1.88;;;0.63;;
21860;SDS011;11095;48.066;8.540;2022-09-09T15:05:20;2.10;;;0.55;;
21860;SDS011;11095;48.066;8.540;2022-09-09T15:07:47;1.60;;;0.60;;
21860;SDS011;11095;48.066;8.540;2022-09-09T15:10:15;1.88;;;0.50;;
21860;SDS011;11095;48.066;8.540;2022-09-09T15:12:42;1.80;;;0.40;;
21860;SDS011;11095;48.066;8.540;2022-09-09T15:15:08;1.60;;;0.50;;
21860;SDS011;11095;48.066;8.540;2022-09-09T15:17:34;2.22;;;0.60;;
21860;SDS011;11095;48.066;8.540;2022-09-09T15:20:01;0.45;;;0.35;;
21860;SDS011;11095;48.066;8.540;2022-09-09T15:24:56;0.52;;;0.32;;
21860;SDS011;11095;48.066;8.540;2022-09-09T15:27:22;0.57;;;0.40;;
21860;SDS011;11095;48.066;8.540;2022-09-09T15:29:48;2.05;;;0.55;;
21860;SDS011;11095;48.066;8.540;2022-09-09T15:32:16;1.30;;;0.40;;
21860;SDS011;11095;48.066;8.540;2022-09-09T15:34:42;1.08;;;0.40;;
21860;SDS011;11095;48.066;8.540;2022-09-09T15:37:09;2.00;;;0.60;;
21860;SDS011;11095;48.066;8.540;2022-09-09T15:39:38;1.65;;;0.43;;
21860;SDS011;11095;48.066;8.540;2022-09-09T15:42:04;1.50;;;0.60;;
21860;SDS011;11095;48.066;8.540;2022-09-09T15:44:41;1.08;;;0.50;;
21860;SDS011;11095;48.066;8.540;2022-09-09T15:47:07;1.35;;;0.52;;
21860;SDS011;11095;48.066;8.540;2022-09-09T15:52:03;1.55;;;0.47;;
21860;SDS011;11095;48.066;8.540;2022-09-09T15:54:33;4.13;;;0.60;;
21860;SDS011;11095;48.066;8.540;2022-09-09T15:57:00;2.63;;;0.60;;
21860;SDS011;11095;48.066;8.540;2022-09-09T15:59:29;1.60;;;0.70;;
21860;SDS011;11095;48.066;8.540;2022-09-09T16:01:56;2.35;;;0.68;;
21860;SDS011;11095;48.066;8.540;2022-09-09T16:04:22;1.50;;;0.75;;
21860;SDS011;11095;48.066;8.540;2022-09-09T16:06:49;2.13;;;0.82;;
21860;SDS011;11095;48.066;8.540;2022-09-09T16:09:19;2.72;;;0.73;;
21860;SDS011;11095;48.066;8.540;2022-09-09T16:11:45;1.08;;;0.50;;
21860;SDS011;11095;48.066;8.540;2022-09-09T16:14:12;1.60;;;0.75;;
21860;SDS011;11095;48.066;8.540;2022-09-09T16:16:38;2.03;;;0.60;;
21860;SDS011;11095;48.066;8.540;2022-09-09T16:19:07;3.05;;;0.65;;
21860;SDS011;11095;48.066;8.540;2022-09-09T16:21:44;2.60;;;0.50;;
21860;SDS011;11095;48.066;8.540;2022-09-09T16:24:12;2.70;;;0.80;;
21860;SDS011;11095;48.066;8.540;2022-09-09T16:26:44;1.55;;;0.60;;
21860;SDS011;11095;48.066;8.540;2022-09-09T16:29:12;2.78;;;0.70;;
21860;SDS011;11095;48.066;8.540;2022-09-09T16:31:39;1.85;;;0.60;;
21860;SDS011;11095;48.066;8.540;2022-09-09T16:34:05;2.38;;;0.82;;
21860;SDS011;11095;48.066;8.540;2022-09-09T16:36:32;2.13;;;0.63;;
21860;SDS011;11095;48.066;8.540;2022-09-09T16:39:00;2.08;;;0.75;;
21860;SDS011;11095;48.066;8.540;2022-09-09T16:41:29;1.85;;;0.60;;
21860;SDS011;11095;48.066;8.540;2022-09-09T16:43:56;1.60;;;0.63;;
21860;SDS011;11095;48.066;8.540;2022-09-09T16:46:24;1.30;;;0.70;;
21860;SDS011;11095;48.066;8.540;2022-09-09T16:48:52;1.75;;;0.70;;
21860;SDS011;11095;48.066;8.540;2022-09-09T16:51:23;1.33;;;0.88;;
21860;SDS011;11095;48.066;8.540;2022-09-09T16:53:54;2.10;;;0.60;;
21860;SDS011;11095;48.066;8.540;2022-09-09T16:56:21;1.92;;;0.70;;
21860;SDS011;11095;48.066;8.540;2022-09-09T16:58:50;1.17;;;0.80;;
21860;SDS011;11095;48.066;8.540;2022-09-09T17:01:18;2.45;;;1.27;;
21860;SDS011;11095;48.066;8.540;2022-09-09T17:03:44;3.13;;;1.30;;
21860;SDS011;11095;48.066;8.540;2022-09-09T17:06:10;2.40;;;1.02;;
21860;SDS011;11095;48.066;8.540;2022-09-09T17:08:40;3.17;;;1.17;;
21860;SDS011;11095;48.066;8.540;2022-09-09T17:11:16;3.75;;;1.00;;
21860;SDS011;11095;48.066;8.540;2022-09-09T17:13:46;3.53;;;0.95;;
21860;SDS011;11095;48.066;8.540;2022-09-09T17:16:13;4.00;;;1.37;;
21860;SDS011;11095;48.066;8.540;2022-09-09T17:18:41;2.28;;;1.00;;
21860;SDS011;11095;48.066;8.540;2022-09-09T17:21:08;3.05;;;0.80;;
21860;SDS011;11095;48.066;8.540;2022-09-09T17:23:37;2.05;;;0.80;;
21860;SDS011;11095;48.066;8.540;2022-09-09T17:26:03;1.67;;;0.60;;
21860;SDS011;11095;48.066;8.540;2022-09-09T17:28:34;2.58;;;0.80;;
21860;SDS011;11095;48.066;8.540;2022-09-09T17:31:01;2.75;;;0.80;;
21860;SDS011;11095;48.066;8.540;2022-09-09T17:33:29;1.48;;;0.60;;